Bellemont, Arizona
Current Conditions -  °F | °C
As of 6:57 PM on Saturday 22 Nov 2014 (Local Time) from KFLG Reporting Station
Clear Clear  
Wind Chill: 37°   Ceiling: Unl
Heat Index: 41°   Visibility: 10mi
Dew Point: 15°   Wind: 6mph
Humidity: 35%   Direction: 260°W
Pressure: 30.03"   Gusts: NA
Location:  35.24°N, 111.83°W
Report Text: KFLG 230157Z 26005KT 10SM CLR 05/M09 A3003 RMK AO2 SLP162 T00501094
Loading
Personal Weather Stations






























Interactive Weather Map New forecast layout! Learn more

10-Day Weather Forecast

Advertisements
Track Severe Weather on mobile